This is the latest recevied weather packets stored in our database for station/object KE2GQQ. If no packets are shown the sender has not sent any weather packets the latest 10 day(s).
| Time | Temp. | Humidity | Pressure | Rain* | Wind** | Luminosity | Snow |
|---|---|---|---|---|---|---|---|
| 1777529115 | 8.33° C | 95% | 1009.2 hPa | 5.08 mm | - | 0 W/m² | - |
| 1777526116 | 8.89° C | 95% | 1010.6 hPa | 1.78 mm | - | 0 W/m² | - |
| 1777521937 | 8.89° C | 94% | 1010.1 hPa | 7.87 mm | - | 0 W/m² | - |
| 1777519517 | 9.44° C | 94% | 1011.2 hPa | 6.1 mm | - | 0 W/m² | - |
| 1777515916 | 9.44° C | 91% | 1011.2 hPa | 0.76 mm | - | 0 W/m² | - |
| 1777512937 | 10° C | 87% | 1011.1 hPa | 0 mm | - | 0 W/m² | - |
| 1777505116 | 11.67° C | 75% | 1011 hPa | 0 mm | - | 2 W/m² | - |
| 1777492516 | 15° C | 65% | 1013 hPa | 0 mm | - | 125 W/m² | - |
| 1777491916 | 15.56° C | 63% | 1013.4 hPa | 0 mm | - | 139 W/m² | - |
| 1777488917 | 16.11° C | 60% | 1013.8 hPa | 0 mm | - | 250 W/m² | - |
| 1777484718 | 16.67° C | 57% | 1014.3 hPa | 0 mm | - | 236 W/m² | - |
| 1777482915 | 16.11° C | 58% | 1014.3 hPa | 0 mm | - | 202 W/m² | - |
| 1777478716 | 16.67° C | 58% | 1014.8 hPa | 0 mm | - | 206 W/m² | - |
| 1777476317 | 16.67° C | 62% | 1015 hPa | 0 mm | - | 182 W/m² | - |
| 1777473918 | 16.11° C | 65% | 1015.2 hPa | 0 mm | - | 408 W/m² | - |
| 1777464317 | 12.22° C | 71% | 1016 hPa | 0 mm | - | 152 W/m² | - |
| 1777453516 | 9.44° C | 80% | 1016.9 hPa | 0 mm | - | 0 W/m² | - |
| 1777451717 | 9.44° C | 80% | 1016.7 hPa | 0 mm | - | 0 W/m² | - |
| 1777448117 | 9.44° C | 78% | 1016.8 hPa | 0 mm | - | 0 W/m² | - |
| 1777446315 | 10.56° C | 75% | 1017.1 hPa | 0 mm | - | 0 W/m² | - |
| 1777445116 | 10.56° C | 72% | 1017.1 hPa | 0 mm | - | 0 W/m² | - |
| 1777440916 | 11.11° C | 69% | 1018.1 hPa | 0 mm | - | 0 W/m² | - |
| 1777438517 | 11.11° C | 68% | 1018.8 hPa | 0 mm | - | 0 W/m² | - |
| 1777437918 | 11.11° C | 68% | 1019.1 hPa | 0 mm | - | 0 W/m² | - |
| 1777437318 | 11.11° C | 68% | 1019 hPa | 0 mm | - | 0 W/m² | - |
* Rain latest hour (hover to see other rain measurements)
** Current wind speed in m/s (hover to see current wind gust speed)